sensor_id;sensor_type;location;lat;lon;timestamp;temperature;humidity
24614;DHT22;12760;46.296;25.290;2022-11-15T00:00:54;4.40;99.90
24614;DHT22;12760;46.296;25.290;2022-11-15T00:03:23;4.40;99.90
24614;DHT22;12760;46.296;25.290;2022-11-15T00:05:49;4.40;99.90
24614;DHT22;12760;46.296;25.290;2022-11-15T00:08:15;4.40;99.90
24614;DHT22;12760;46.296;25.290;2022-11-15T00:10:41;4.40;99.90
24614;DHT22;12760;46.296;25.290;2022-11-15T00:13:07;4.30;99.90
24614;DHT22;12760;46.296;25.290;2022-11-15T00:15:37;4.30;99.90
24614;DHT22;12760;46.296;25.290;2022-11-15T00:18:04;4.30;99.90
24614;DHT22;12760;46.296;25.290;2022-11-15T00:20:31;4.30;99.90
24614;DHT22;12760;46.296;25.290;2022-11-15T00:22:56;4.30;99.90
24614;DHT22;12760;46.296;25.290;2022-11-15T00:25:22;4.30;99.90
24614;DHT22;12760;46.296;25.290;2022-11-15T00:27:48;4.20;99.90
24614;DHT22;12760;46.296;25.290;2022-11-15T00:30:13;4.20;99.90
24614;DHT22;12760;46.296;25.290;2022-11-15T00:32:39;4.20;99.90
24614;DHT22;12760;46.296;25.290;2022-11-15T00:35:05;4.20;99.90
24614;DHT22;12760;46.296;25.290;2022-11-15T00:37:31;4.20;99.90
24614;DHT22;12760;46.296;25.290;2022-11-15T00:39:56;4.10;99.90
24614;DHT22;12760;46.296;25.290;2022-11-15T00:42:22;4.00;99.90
24614;DHT22;12760;46.296;25.290;2022-11-15T00:44:48;3.90;99.90
24614;DHT22;12760;46.296;25.290;2022-11-15T00:47:13;3.90;99.90
24614;DHT22;12760;46.296;25.290;2022-11-15T00:49:39;3.90;99.90
24614;DHT22;12760;46.296;25.290;2022-11-15T00:52:06;3.80;99.90
24614;DHT22;12760;46.296;25.290;2022-11-15T00:54:32;3.80;99.90
24614;DHT22;12760;46.296;25.290;2022-11-15T00:56:57;3.80;99.90
24614;DHT22;12760;46.296;25.290;2022-11-15T00:59:23;3.70;99.90
24614;DHT22;12760;46.296;25.290;2022-11-15T01:01:49;3.80;99.90
24614;DHT22;12760;46.296;25.290;2022-11-15T01:04:14;3.80;99.90
24614;DHT22;12760;46.296;25.290;2022-11-15T01:06:40;3.80;99.90
24614;DHT22;12760;46.296;25.290;2022-11-15T01:09:06;3.80;99.90
24614;DHT22;12760;46.296;25.290;2022-11-15T01:11:31;3.80;99.90
24614;DHT22;12760;46.296;25.290;2022-11-15T01:13:57;3.80;99.90
24614;DHT22;12760;46.296;25.290;2022-11-15T01:16:23;3.80;99.90
24614;DHT22;12760;46.296;25.290;2022-11-15T01:18:48;3.80;99.90
24614;DHT22;12760;46.296;25.290;2022-11-15T01:21:17;3.80;99.90
24614;DHT22;12760;46.296;25.290;2022-11-15T01:23:43;3.80;99.90
24614;DHT22;12760;46.296;25.290;2022-11-15T01:26:12;3.70;99.90
24614;DHT22;12760;46.296;25.290;2022-11-15T01:28:39;3.70;99.90
24614;DHT22;12760;46.296;25.290;2022-11-15T01:31:10;3.60;99.90
24614;DHT22;12760;46.296;25.290;2022-11-15T01:33:36;3.60;99.90
24614;DHT22;12760;46.296;25.290;2022-11-15T01:36:21;3.50;99.90
24614;DHT22;12760;46.296;25.290;2022-11-15T01:38:57;3.50;99.90
24614;DHT22;12760;46.296;25.290;2022-11-15T01:41:28;3.50;99.90
24614;DHT22;12760;46.296;25.290;2022-11-15T01:47:01;3.50;99.90
24614;DHT22;12760;46.296;25.290;2022-11-15T01:49:30;3.40;99.90
24614;DHT22;12760;46.296;25.290;2022-11-15T01:51:58;3.40;99.90
24614;DHT22;12760;46.296;25.290;2022-11-15T01:54:24;3.30;99.90
24614;DHT22;12760;46.296;25.290;2022-11-15T01:56:57;3.30;99.90
24614;DHT22;12760;46.296;25.290;2022-11-15T01:59:25;3.30;99.90
24614;DHT22;12760;46.296;25.290;2022-11-15T02:01:51;3.30;99.90
24614;DHT22;12760;46.296;25.290;2022-11-15T02:04:33;3.20;99.90
24614;DHT22;12760;46.296;25.290;2022-11-15T02:07:03;3.10;99.90
24614;DHT22;12760;46.296;25.290;2022-11-15T02:09:29;3.10;99.90
24614;DHT22;12760;46.296;25.290;2022-11-15T02:11:56;3.10;99.90
24614;DHT22;12760;46.296;25.290;2022-11-15T02:14:23;3.10;99.90
24614;DHT22;12760;46.296;25.290;2022-11-15T02:17:13;3.00;99.90
24614;DHT22;12760;46.296;25.290;2022-11-15T02:23:15;3.10;99.90
24614;DHT22;12760;46.296;25.290;2022-11-15T02:25:48;3.00;99.90
24614;DHT22;12760;46.296;25.290;2022-11-15T02:29:21;3.10;99.90
24614;DHT22;12760;46.296;25.290;2022-11-15T02:34:57;3.00;99.90
24614;DHT22;12760;46.296;25.290;2022-11-15T02:37:36;3.00;99.90
24614;DHT22;12760;46.296;25.290;2022-11-15T02:40:33;3.00;99.90
24614;DHT22;12760;46.296;25.290;2022-11-15T02:43:08;3.00;99.90
24614;DHT22;12760;46.296;25.290;2022-11-15T02:46:40;3.00;99.90
24614;DHT22;12760;46.296;25.290;2022-11-15T02:48:48;3.00;99.90
24614;DHT22;12760;46.296;25.290;2022-11-15T02:51:14;3.00;99.90
24614;DHT22;12760;46.296;25.290;2022-11-15T02:53:41;3.00;99.90
24614;DHT22;12760;46.296;25.290;2022-11-15T02:56:09;3.00;99.90
24614;DHT22;12760;46.296;25.290;2022-11-15T03:04:10;3.00;99.90
24614;DHT22;12760;46.296;25.290;2022-11-15T03:06:48;3.00;99.90
24614;DHT22;12760;46.296;25.290;2022-11-15T03:12:12;3.00;99.90
24614;DHT22;12760;46.296;25.290;2022-11-15T03:15:01;3.00;99.90
24614;DHT22;12760;46.296;25.290;2022-11-15T03:17:33;3.00;99.90
24614;DHT22;12760;46.296;25.290;2022-11-15T03:20:03;3.00;99.90
24614;DHT22;12760;46.296;25.290;2022-11-15T03:22:35;3.00;99.90
24614;DHT22;12760;46.296;25.290;2022-11-15T03:25:05;2.90;99.90
24614;DHT22;12760;46.296;25.290;2022-11-15T03:27:37;2.90;99.90
24614;DHT22;12760;46.296;25.290;2022-11-15T03:30:06;2.80;99.90
24614;DHT22;12760;46.296;25.290;2022-11-15T03:32:37;2.80;99.90
24614;DHT22;12760;46.296;25.290;2022-11-15T03:35:23;2.80;99.90
24614;DHT22;12760;46.296;25.290;2022-11-15T03:40:23;2.80;99.90
24614;DHT22;12760;46.296;25.290;2022-11-15T03:43:09;2.70;99.90
24614;DHT22;12760;46.296;25.290;2022-11-15T03:45:41;2.60;99.90
24614;DHT22;12760;46.296;25.290;2022-11-15T03:48:20;2.60;99.90
24614;DHT22;12760;46.296;25.290;2022-11-15T03:50:47;2.60;99.90
24614;DHT22;12760;46.296;25.290;2022-11-15T03:53:13;2.60;99.90
24614;DHT22;12760;46.296;25.290;2022-11-15T03:55:39;2.50;99.90
24614;DHT22;12760;46.296;25.290;2022-11-15T03:58:05;2.60;99.90
24614;DHT22;12760;46.296;25.290;2022-11-15T04:00:31;2.60;99.90
24614;DHT22;12760;46.296;25.290;2022-11-15T04:02:57;2.50;99.90
24614;DHT22;12760;46.296;25.290;2022-11-15T04:05:23;2.50;99.90
24614;DHT22;12760;46.296;25.290;2022-11-15T04:07:48;2.50;99.90
24614;DHT22;12760;46.296;25.290;2022-11-15T04:10:14;2.50;99.90
24614;DHT22;12760;46.296;25.290;2022-11-15T04:12:42;2.50;99.90
24614;DHT22;12760;46.296;25.290;2022-11-15T04:15:10;2.40;99.90
24614;DHT22;12760;46.296;25.290;2022-11-15T04:17:49;2.30;99.90
24614;DHT22;12760;46.296;25.290;2022-11-15T04:20:21;2.30;99.90
24614;DHT22;12760;46.296;25.290;2022-11-15T04:23:19;2.30;99.90
24614;DHT22;12760;46.296;25.290;2022-11-15T04:26:16;2.30;99.90
24614;DHT22;12760;46.296;25.290;2022-11-15T04:28:42;2.20;99.90
24614;DHT22;12760;46.296;25.290;2022-11-15T04:31:26;2.20;99.90
24614;DHT22;12760;46.296;25.290;2022-11-15T04:33:53;2.10;99.90
24614;DHT22;12760;46.296;25.290;2022-11-15T04:36:19;2.10;99.90
24614;DHT22;12760;46.296;25.290;2022-11-15T04:39:05;2.10;99.90
24614;DHT22;12760;46.296;25.290;2022-11-15T04:41:31;2.10;99.90
24614;DHT22;12760;46.296;25.290;2022-11-15T04:43:57;2.10;99.90
24614;DHT22;12760;46.296;25.290;2022-11-15T04:46:23;2.10;99.90
24614;DHT22;12760;46.296;25.290;2022-11-15T04:48:50;2.00;99.90
24614;DHT22;12760;46.296;25.290;2022-11-15T04:51:16;2.00;99.90
24614;DHT22;12760;46.296;25.290;2022-11-15T04:53:42;2.00;99.90
24614;DHT22;12760;46.296;25.290;2022-11-15T04:56:08;2.00;99.90
24614;DHT22;12760;46.296;25.290;2022-11-15T04:58:34;2.00;99.90
24614;DHT22;12760;46.296;25.290;2022-11-15T05:01:11;2.10;99.90
24614;DHT22;12760;46.296;25.290;2022-11-15T05:03:37;2.10;99.90
24614;DHT22;12760;46.296;25.290;2022-11-15T05:06:21;2.10;99.90
24614;DHT22;12760;46.296;25.290;2022-11-15T05:08:47;2.10;99.90
24614;DHT22;12760;46.296;25.290;2022-11-15T05:11:13;2.10;99.90
24614;DHT22;12760;46.296;25.290;2022-11-15T05:13:38;2.00;99.90
24614;DHT22;12760;46.296;25.290;2022-11-15T05:16:04;2.00;99.90
24614;DHT22;12760;46.296;25.290;2022-11-15T05:18:30;2.00;99.90
24614;DHT22;12760;46.296;25.290;2022-11-15T05:20:55;2.00;99.90
24614;DHT22;12760;46.296;25.290;2022-11-15T05:23:21;1.90;99.90
24614;DHT22;12760;46.296;25.290;2022-11-15T05:25:47;1.90;99.90
24614;DHT22;12760;46.296;25.290;2022-11-15T05:28:12;1.90;99.90
24614;DHT22;12760;46.296;25.290;2022-11-15T05:30:38;1.80;99.90
24614;DHT22;12760;46.296;25.290;2022-11-15T05:33:04;1.90;99.90
24614;DHT22;12760;46.296;25.290;2022-11-15T05:35:34;1.90;99.90
24614;DHT22;12760;46.296;25.290;2022-11-15T05:38:01;1.90;99.90
24614;DHT22;12760;46.296;25.290;2022-11-15T05:40:27;1.90;99.90
24614;DHT22;12760;46.296;25.290;2022-11-15T05:42:54;1.90;99.90
24614;DHT22;12760;46.296;25.290;2022-11-15T05:45:20;1.90;99.90
24614;DHT22;12760;46.296;25.290;2022-11-15T05:47:46;2.00;99.90
24614;DHT22;12760;46.296;25.290;2022-11-15T05:50:14;2.00;99.90
24614;DHT22;12760;46.296;25.290;2022-11-15T05:52:42;2.00;99.90
24614;DHT22;12760;46.296;25.290;2022-11-15T05:55:09;2.00;99.90
24614;DHT22;12760;46.296;25.290;2022-11-15T05:57:35;2.00;99.90
24614;DHT22;12760;46.296;25.290;2022-11-15T06:00:01;2.00;99.90
24614;DHT22;12760;46.296;25.290;2022-11-15T06:02:27;2.00;99.90
24614;DHT22;12760;46.296;25.290;2022-11-15T06:04:52;2.00;99.90
24614;DHT22;12760;46.296;25.290;2022-11-15T06:07:18;1.90;99.90
24614;DHT22;12760;46.296;25.290;2022-11-15T06:09:44;2.00;99.90
24614;DHT22;12760;46.296;25.290;2022-11-15T06:12:09;1.90;99.90
24614;DHT22;12760;46.296;25.290;2022-11-15T06:14:35;1.80;99.90
24614;DHT22;12760;46.296;25.290;2022-11-15T06:17:01;1.80;99.90
24614;DHT22;12760;46.296;25.290;2022-11-15T06:19:28;1.80;99.90
24614;DHT22;12760;46.296;25.290;2022-11-15T06:21:58;1.80;99.90
24614;DHT22;12760;46.296;25.290;2022-11-15T06:24:24;1.80;99.90
24614;DHT22;12760;46.296;25.290;2022-11-15T06:26:50;1.80;99.90
24614;DHT22;12760;46.296;25.290;2022-11-15T06:29:16;1.80;99.90
24614;DHT22;12760;46.296;25.290;2022-11-15T06:31:41;1.90;99.90
24614;DHT22;12760;46.296;25.290;2022-11-15T06:34:07;2.00;99.90
24614;DHT22;12760;46.296;25.290;2022-11-15T06:36:35;2.10;99.90
24614;DHT22;12760;46.296;25.290;2022-11-15T06:39:02;2.20;99.90
24614;DHT22;12760;46.296;25.290;2022-11-15T06:41:28;2.20;99.90
24614;DHT22;12760;46.296;25.290;2022-11-15T06:43:53;2.20;99.90
24614;DHT22;12760;46.296;25.290;2022-11-15T06:46:19;2.20;99.90
24614;DHT22;12760;46.296;25.290;2022-11-15T06:48:45;2.10;99.90
24614;DHT22;12760;46.296;25.290;2022-11-15T06:51:10;2.10;99.90
24614;DHT22;12760;46.296;25.290;2022-11-15T06:53:36;2.20;99.90
24614;DHT22;12760;46.296;25.290;2022-11-15T06:56:04;2.20;99.90
24614;DHT22;12760;46.296;25.290;2022-11-15T06:58:30;2.20;99.90
24614;DHT22;12760;46.296;25.290;2022-11-15T07:01:01;2.20;99.90
24614;DHT22;12760;46.296;25.290;2022-11-15T07:03:27;2.20;99.90
24614;DHT22;12760;46.296;25.290;2022-11-15T07:05:54;2.30;99.90
24614;DHT22;12760;46.296;25.290;2022-11-15T07:08:21;2.50;99.90
24614;DHT22;12760;46.296;25.290;2022-11-15T07:10:47;2.60;99.90
24614;DHT22;12760;46.296;25.290;2022-11-15T07:13:13;2.80;99.90
24614;DHT22;12760;46.296;25.290;2022-11-15T07:15:39;3.00;99.90
24614;DHT22;12760;46.296;25.290;2022-11-15T07:18:05;3.10;99.90
24614;DHT22;12760;46.296;25.290;2022-11-15T07:20:30;3.30;99.90
24614;DHT22;12760;46.296;25.290;2022-11-15T07:23:03;3.40;99.90
24614;DHT22;12760;46.296;25.290;2022-11-15T07:25:30;3.40;99.90
24614;DHT22;12760;46.296;25.290;2022-11-15T07:27:57;3.50;99.90
24614;DHT22;12760;46.296;25.290;2022-11-15T07:30:23;3.60;99.90
24614;DHT22;12760;46.296;25.290;2022-11-15T07:32:56;3.70;99.90
24614;DHT22;12760;46.296;25.290;2022-11-15T07:35:23;3.90;99.90
24614;DHT22;12760;46.296;25.290;2022-11-15T07:38:02;4.10;99.90
24614;DHT22;12760;46.296;25.290;2022-11-15T07:40:31;4.20;99.90
24614;DHT22;12760;46.296;25.290;2022-11-15T07:43:07;4.40;99.90
24614;DHT22;12760;46.296;25.290;2022-11-15T07:45:34;4.50;99.90
24614;DHT22;12760;46.296;25.290;2022-11-15T07:48:05;4.60;99.90
24614;DHT22;12760;46.296;25.290;2022-11-15T07:50:31;4.70;99.90
24614;DHT22;12760;46.296;25.290;2022-11-15T07:52:58;4.70;99.90
24614;DHT22;12760;46.296;25.290;2022-11-15T07:55:26;4.80;99.90
24614;DHT22;12760;46.296;25.290;2022-11-15T07:57:53;4.90;99.90
24614;DHT22;12760;46.296;25.290;2022-11-15T08:00:19;5.00;99.90
24614;DHT22;12760;46.296;25.290;2022-11-15T08:02:45;5.20;99.90
24614;DHT22;12760;46.296;25.290;2022-11-15T08:05:11;5.20;99.90
24614;DHT22;12760;46.296;25.290;2022-11-15T08:07:37;5.30;99.90
24614;DHT22;12760;46.296;25.290;2022-11-15T08:10:04;5.50;99.90
24614;DHT22;12760;46.296;25.290;2022-11-15T08:12:31;5.60;99.90
24614;DHT22;12760;46.296;25.290;2022-11-15T08:14:57;5.90;99.90
24614;DHT22;12760;46.296;25.290;2022-11-15T08:17:24;6.00;99.90
24614;DHT22;12760;46.296;25.290;2022-11-15T08:19:50;6.10;99.90
24614;DHT22;12760;46.296;25.290;2022-11-15T08:22:16;6.20;99.90
24614;DHT22;12760;46.296;25.290;2022-11-15T08:24:42;6.30;99.90
24614;DHT22;12760;46.296;25.290;2022-11-15T08:27:09;6.50;99.90
24614;DHT22;12760;46.296;25.290;2022-11-15T08:29:41;6.70;99.90
24614;DHT22;12760;46.296;25.290;2022-11-15T08:32:07;6.90;99.90
24614;DHT22;12760;46.296;25.290;2022-11-15T08:34:33;7.10;99.90
24614;DHT22;12760;46.296;25.290;2022-11-15T08:36:58;7.20;99.90
24614;DHT22;12760;46.296;25.290;2022-11-15T08:39:24;7.40;99.90
24614;DHT22;12760;46.296;25.290;2022-11-15T08:41:50;7.50;99.90
24614;DHT22;12760;46.296;25.290;2022-11-15T08:44:15;7.60;99.90
24614;DHT22;12760;46.296;25.290;2022-11-15T08:46:41;7.70;99.90
24614;DHT22;12760;46.296;25.290;2022-11-15T08:49:07;7.80;99.90
24614;DHT22;12760;46.296;25.290;2022-11-15T08:51:32;8.00;99.90
24614;DHT22;12760;46.296;25.290;2022-11-15T08:53:58;8.10;99.90
24614;DHT22;12760;46.296;25.290;2022-11-15T08:56:24;8.20;99.90
24614;DHT22;12760;46.296;25.290;2022-11-15T08:58:49;8.30;99.90
24614;DHT22;12760;46.296;25.290;2022-11-15T09:01:20;8.40;99.90
24614;DHT22;12760;46.296;25.290;2022-11-15T09:03:46;8.50;99.90
24614;DHT22;12760;46.296;25.290;2022-11-15T09:06:12;8.50;99.90
24614;DHT22;12760;46.296;25.290;2022-11-15T09:08:38;8.60;99.90
24614;DHT22;12760;46.296;25.290;2022-11-15T09:11:06;8.70;99.90
24614;DHT22;12760;46.296;25.290;2022-11-15T09:13:32;8.70;99.90
24614;DHT22;12760;46.296;25.290;2022-11-15T09:15:59;8.80;99.90
24614;DHT22;12760;46.296;25.290;2022-11-15T09:18:26;8.80;99.90
24614;DHT22;12760;46.296;25.290;2022-11-15T09:20:58;9.00;99.90
24614;DHT22;12760;46.296;25.290;2022-11-15T09:23:25;9.00;99.90
24614;DHT22;12760;46.296;25.290;2022-11-15T09:25:52;9.10;99.90
24614;DHT22;12760;46.296;25.290;2022-11-15T09:28:18;9.30;99.90
24614;DHT22;12760;46.296;25.290;2022-11-15T09:30:44;9.40;99.90
24614;DHT22;12760;46.296;25.290;2022-11-15T09:33:11;9.40;99.90
24614;DHT22;12760;46.296;25.290;2022-11-15T09:35:37;9.50;99.90
24614;DHT22;12760;46.296;25.290;2022-11-15T09:38:03;9.60;99.90
24614;DHT22;12760;46.296;25.290;2022-11-15T09:40:35;9.70;99.90
24614;DHT22;12760;46.296;25.290;2022-11-15T09:51:04;10.00;99.90
24614;DHT22;12760;46.296;25.290;2022-11-15T09:56:31;10.20;99.90
24614;DHT22;12760;46.296;25.290;2022-11-15T10:04:33;10.50;99.90
24614;DHT22;12760;46.296;25.290;2022-11-15T10:07:45;10.50;99.90
24614;DHT22;12760;46.296;25.290;2022-11-15T10:12:51;10.70;99.90
24614;DHT22;12760;46.296;25.290;2022-11-15T10:15:18;10.80;99.90
24614;DHT22;12760;46.296;25.290;2022-11-15T10:18:01;10.90;99.90
24614;DHT22;12760;46.296;25.290;2022-11-15T10:20:55;11.00;99.90
24614;DHT22;12760;46.296;25.290;2022-11-15T10:23:20;11.10;99.90
24614;DHT22;12760;46.296;25.290;2022-11-15T10:25:46;11.20;99.90
24614;DHT22;12760;46.296;25.290;2022-11-15T10:28:21;11.20;99.90
24614;DHT22;12760;46.296;25.290;2022-11-15T10:30:50;11.30;99.90
24614;DHT22;12760;46.296;25.290;2022-11-15T10:41:14;11.50;99.90
24614;DHT22;12760;46.296;25.290;2022-11-15T10:43:40;11.60;99.90
24614;DHT22;12760;46.296;25.290;2022-11-15T10:46:20;11.70;99.90
24614;DHT22;12760;46.296;25.290;2022-11-15T10:48:47;11.70;99.90
24614;DHT22;12760;46.296;25.290;2022-11-15T10:51:52;11.70;99.90
24614;DHT22;12760;46.296;25.290;2022-11-15T10:54:28;11.80;99.90
24614;DHT22;12760;46.296;25.290;2022-11-15T10:56:58;11.80;99.90
24614;DHT22;12760;46.296;25.290;2022-11-15T10:59:30;11.90;99.90
24614;DHT22;12760;46.296;25.290;2022-11-15T11:01:57;12.00;99.90
24614;DHT22;12760;46.296;25.290;2022-11-15T11:04:23;12.00;99.90
24614;DHT22;12760;46.296;25.290;2022-11-15T11:06:59;12.10;99.90
24614;DHT22;12760;46.296;25.290;2022-11-15T11:11:55;12.20;99.90
24614;DHT22;12760;46.296;25.290;2022-11-15T11:14:21;12.30;99.90
24614;DHT22;12760;46.296;25.290;2022-11-15T11:16:55;12.30;99.90
24614;DHT22;12760;46.296;25.290;2022-11-15T11:19:39;12.50;99.90
24614;DHT22;12760;46.296;25.290;2022-11-15T11:25:56;12.60;99.90
24614;DHT22;12760;46.296;25.290;2022-11-15T11:31:03;12.60;99.90
24614;DHT22;12760;46.296;25.290;2022-11-15T11:34:26;12.70;99.90
24614;DHT22;12760;46.296;25.290;2022-11-15T11:36:40;12.70;99.90
24614;DHT22;12760;46.296;25.290;2022-11-15T11:39:31;12.80;99.90
24614;DHT22;12760;46.296;25.290;2022-11-15T11:42:30;12.80;99.90
24614;DHT22;12760;46.296;25.290;2022-11-15T11:45:49;12.90;99.90
24614;DHT22;12760;46.296;25.290;2022-11-15T11:48:44;12.90;99.90
24614;DHT22;12760;46.296;25.290;2022-11-15T11:51:18;12.90;99.90
24614;DHT22;12760;46.296;25.290;2022-11-15T11:54:05;12.90;99.90
24614;DHT22;12760;46.296;25.290;2022-11-15T11:56:36;13.00;99.90
24614;DHT22;12760;46.296;25.290;2022-11-15T12:01:42;13.00;99.90
24614;DHT22;12760;46.296;25.290;2022-11-15T12:04:13;13.10;99.90
24614;DHT22;12760;46.296;25.290;2022-11-15T12:06:59;13.10;99.40
24614;DHT22;12760;46.296;25.290;2022-11-15T12:09:35;13.10;98.60
24614;DHT22;12760;46.296;25.290;2022-11-15T12:12:17;13.10;99.90
24614;DHT22;12760;46.296;25.290;2022-11-15T12:14:51;13.20;99.90
24614;DHT22;12760;46.296;25.290;2022-11-15T12:17:27;13.20;99.90
24614;DHT22;12760;46.296;25.290;2022-11-15T12:20:01;13.20;99.90
24614;DHT22;12760;46.296;25.290;2022-11-15T12:28:06;13.20;99.60
24614;DHT22;12760;46.296;25.290;2022-11-15T12:30:52;13.30;99.90
24614;DHT22;12760;46.296;25.290;2022-11-15T12:33:38;13.30;99.90
24614;DHT22;12760;46.296;25.290;2022-11-15T12:41:19;13.30;99.90
24614;DHT22;12760;46.296;25.290;2022-11-15T12:43:47;13.30;99.90
24614;DHT22;12760;46.296;25.290;2022-11-15T12:48:59;13.40;99.90
24614;DHT22;12760;46.296;25.290;2022-11-15T12:59:56;13.40;99.90
24614;DHT22;12760;46.296;25.290;2022-11-15T13:02:40;13.40;99.90
24614;DHT22;12760;46.296;25.290;2022-11-15T13:17:45;13.40;99.90
24614;DHT22;12760;46.296;25.290;2022-11-15T13:28:31;13.50;99.90
24614;DHT22;12760;46.296;25.290;2022-11-15T13:31:21;13.50;99.90
24614;DHT22;12760;46.296;25.290;2022-11-15T13:33:48;13.50;99.90
24614;DHT22;12760;46.296;25.290;2022-11-15T13:36:20;13.50;99.90
24614;DHT22;12760;46.296;25.290;2022-11-15T13:39:02;13.40;99.90
24614;DHT22;12760;46.296;25.290;2022-11-15T13:41:33;13.40;99.90
24614;DHT22;12760;46.296;25.290;2022-11-15T13:44:00;13.40;99.90
24614;DHT22;12760;46.296;25.290;2022-11-15T13:49:09;13.40;99.90
24614;DHT22;12760;46.296;25.290;2022-11-15T13:51:47;13.30;99.90
24614;DHT22;12760;46.296;25.290;2022-11-15T13:57:05;13.30;99.90
24614;DHT22;12760;46.296;25.290;2022-11-15T13:59:46;13.20;99.90
24614;DHT22;12760;46.296;25.290;2022-11-15T14:02:26;13.20;99.90
24614;DHT22;12760;46.296;25.290;2022-11-15T14:04:59;13.20;99.90
24614;DHT22;12760;46.296;25.290;2022-11-15T14:07:27;13.10;99.90
24614;DHT22;12760;46.296;25.290;2022-11-15T14:09:54;13.00;99.90
24614;DHT22;12760;46.296;25.290;2022-11-15T14:12:32;13.00;99.90
24614;DHT22;12760;46.296;25.290;2022-11-15T14:15:00;12.90;99.90
24614;DHT22;12760;46.296;25.290;2022-11-15T14:19:56;12.80;99.90
24614;DHT22;12760;46.296;25.290;2022-11-15T14:22:27;12.80;99.90
24614;DHT22;12760;46.296;25.290;2022-11-15T14:27:38;12.60;99.90
24614;DHT22;12760;46.296;25.290;2022-11-15T14:30:04;12.50;99.90
24614;DHT22;12760;46.296;25.290;2022-11-15T14:32:45;12.40;99.90
24614;DHT22;12760;46.296;25.290;2022-11-15T14:35:21;12.30;99.90
24614;DHT22;12760;46.296;25.290;2022-11-15T14:37:48;12.20;99.90
24614;DHT22;12760;46.296;25.290;2022-11-15T14:40:19;12.10;99.90
24614;DHT22;12760;46.296;25.290;2022-11-15T14:42:46;12.00;99.90
24614;DHT22;12760;46.296;25.290;2022-11-15T14:45:20;11.90;99.90
24614;DHT22;12760;46.296;25.290;2022-11-15T14:47:46;11.80;99.90
24614;DHT22;12760;46.296;25.290;2022-11-15T14:50:18;11.70;99.90
24614;DHT22;12760;46.296;25.290;2022-11-15T14:52:44;11.70;99.90
24614;DHT22;12760;46.296;25.290;2022-11-15T14:57:41;11.50;99.90
24614;DHT22;12760;46.296;25.290;2022-11-15T15:00:08;11.40;99.90
24614;DHT22;12760;46.296;25.290;2022-11-15T15:02:35;11.30;99.90
24614;DHT22;12760;46.296;25.290;2022-11-15T15:05:07;11.20;99.90
24614;DHT22;12760;46.296;25.290;2022-11-15T15:07:38;11.10;99.90
24614;DHT22;12760;46.296;25.290;2022-11-15T15:10:04;10.90;99.90
24614;DHT22;12760;46.296;25.290;2022-11-15T15:12:30;10.90;99.90
24614;DHT22;12760;46.296;25.290;2022-11-15T15:14:56;10.90;99.90
24614;DHT22;12760;46.296;25.290;2022-11-15T15:17:21;10.80;99.90
24614;DHT22;12760;46.296;25.290;2022-11-15T15:19:47;10.70;99.90
24614;DHT22;12760;46.296;25.290;2022-11-15T15:22:17;10.60;99.90
24614;DHT22;12760;46.296;25.290;2022-11-15T15:24:44;10.50;99.90
24614;DHT22;12760;46.296;25.290;2022-11-15T15:27:11;10.40;99.90
24614;DHT22;12760;46.296;25.290;2022-11-15T15:29:37;10.40;99.90
24614;DHT22;12760;46.296;25.290;2022-11-15T15:32:03;10.30;99.90
24614;DHT22;12760;46.296;25.290;2022-11-15T15:34:29;10.30;99.90
24614;DHT22;12760;46.296;25.290;2022-11-15T15:37:19;10.20;99.90
24614;DHT22;12760;46.296;25.290;2022-11-15T15:39:54;10.10;99.90
24614;DHT22;12760;46.296;25.290;2022-11-15T15:42:21;10.00;99.90
24614;DHT22;12760;46.296;25.290;2022-11-15T15:44:48;10.00;99.90
24614;DHT22;12760;46.296;25.290;2022-11-15T15:47:19;10.00;99.90
24614;DHT22;12760;46.296;25.290;2022-11-15T15:49:46;9.90;99.90
24614;DHT22;12760;46.296;25.290;2022-11-15T15:52:12;9.90;99.90
24614;DHT22;12760;46.296;25.290;2022-11-15T15:54:39;9.80;99.90
24614;DHT22;12760;46.296;25.290;2022-11-15T15:57:06;9.80;99.90
24614;DHT22;12760;46.296;25.290;2022-11-15T15:59:32;9.80;99.90
24614;DHT22;12760;46.296;25.290;2022-11-15T16:01:57;9.70;99.90
24614;DHT22;12760;46.296;25.290;2022-11-15T16:04:23;9.60;99.90
24614;DHT22;12760;46.296;25.290;2022-11-15T16:06:49;9.60;99.90
24614;DHT22;12760;46.296;25.290;2022-11-15T16:09:19;9.50;99.90
24614;DHT22;12760;46.296;25.290;2022-11-15T16:12:04;9.50;99.90
24614;DHT22;12760;46.296;25.290;2022-11-15T16:14:31;9.40;99.90
24614;DHT22;12760;46.296;25.290;2022-11-15T16:16:57;9.40;99.90
24614;DHT22;12760;46.296;25.290;2022-11-15T16:19:23;9.30;99.90
24614;DHT22;12760;46.296;25.290;2022-11-15T16:21:49;9.30;99.90
24614;DHT22;12760;46.296;25.290;2022-11-15T16:24:15;9.20;99.90
24614;DHT22;12760;46.296;25.290;2022-11-15T16:26:40;9.20;99.90
24614;DHT22;12760;46.296;25.290;2022-11-15T16:29:08;9.10;99.90
24614;DHT22;12760;46.296;25.290;2022-11-15T16:31:34;9.00;99.90
24614;DHT22;12760;46.296;25.290;2022-11-15T16:34:00;9.00;99.90
24614;DHT22;12760;46.296;25.290;2022-11-15T16:36:26;8.90;99.90
24614;DHT22;12760;46.296;25.290;2022-11-15T16:38:52;8.90;99.90
24614;DHT22;12760;46.296;25.290;2022-11-15T16:41:18;8.90;99.90
24614;DHT22;12760;46.296;25.290;2022-11-15T16:43:45;8.80;99.90
24614;DHT22;12760;46.296;25.290;2022-11-15T16:46:18;8.80;99.90
24614;DHT22;12760;46.296;25.290;2022-11-15T16:48:44;8.70;99.90
24614;DHT22;12760;46.296;25.290;2022-11-15T16:51:09;8.70;99.90
24614;DHT22;12760;46.296;25.290;2022-11-15T16:53:35;8.60;99.90
24614;DHT22;12760;46.296;25.290;2022-11-15T16:56:01;8.50;99.90
24614;DHT22;12760;46.296;25.290;2022-11-15T16:58:27;8.50;99.90
24614;DHT22;12760;46.296;25.290;2022-11-15T17:00:54;8.50;99.90
24614;DHT22;12760;46.296;25.290;2022-11-15T17:03:23;8.40;99.90
24614;DHT22;12760;46.296;25.290;2022-11-15T17:05:50;8.40;99.90
24614;DHT22;12760;46.296;25.290;2022-11-15T17:08:15;8.40;99.90
24614;DHT22;12760;46.296;25.290;2022-11-15T17:10:41;8.30;99.90
24614;DHT22;12760;46.296;25.290;2022-11-15T17:13:11;8.30;99.90
24614;DHT22;12760;46.296;25.290;2022-11-15T17:15:37;8.30;99.90
24614;DHT22;12760;46.296;25.290;2022-11-15T17:18:03;8.30;99.90
24614;DHT22;12760;46.296;25.290;2022-11-15T17:20:28;8.20;99.90
24614;DHT22;12760;46.296;25.290;2022-11-15T17:22:55;8.20;99.90
24614;DHT22;12760;46.296;25.290;2022-11-15T17:25:20;8.20;99.90
24614;DHT22;12760;46.296;25.290;2022-11-15T17:27:46;8.20;99.90
24614;DHT22;12760;46.296;25.290;2022-11-15T17:30:13;8.20;99.90
24614;DHT22;12760;46.296;25.290;2022-11-15T17:32:44;8.10;99.90
24614;DHT22;12760;46.296;25.290;2022-11-15T17:35:11;8.10;99.90
24614;DHT22;12760;46.296;25.290;2022-11-15T17:37:37;8.00;99.90
24614;DHT22;12760;46.296;25.290;2022-11-15T17:40:04;7.90;99.90